sensor_id;sensor_type;location;lat;lon;timestamp;P1;durP1;ratioP1;P2;durP2;ratioP2
26820;SDS011;37186;51.394;5.454;2023-02-01T00:02:18;3.20;;;3.10;;
26820;SDS011;37186;51.394;5.454;2023-02-01T00:05:19;3.03;;;2.93;;
26820;SDS011;37186;51.394;5.454;2023-02-01T00:08:19;3.07;;;2.97;;
26820;SDS011;37186;51.394;5.454;2023-02-01T00:11:20;3.20;;;3.10;;
26820;SDS011;37186;51.394;5.454;2023-02-01T00:14:21;3.00;;;2.90;;
26820;SDS011;37186;51.394;5.454;2023-02-01T00:17:23;3.17;;;3.07;;
26820;SDS011;37186;51.394;5.454;2023-02-01T00:20:23;3.30;;;3.20;;
26820;SDS011;37186;51.394;5.454;2023-02-01T00:23:24;3.10;;;3.00;;
26820;SDS011;37186;51.394;5.454;2023-02-01T00:26:32;3.20;;;3.10;;
26820;SDS011;37186;51.394;5.454;2023-02-01T00:29:40;3.20;;;3.10;;
26820;SDS011;37186;51.394;5.454;2023-02-01T00:32:40;3.13;;;3.03;;
26820;SDS011;37186;51.394;5.454;2023-02-01T00:35:41;3.00;;;2.90;;
26820;SDS011;37186;51.394;5.454;2023-02-01T00:38:41;3.10;;;3.00;;
26820;SDS011;37186;51.394;5.454;2023-02-01T00:41:42;3.07;;;2.97;;
26820;SDS011;37186;51.394;5.454;2023-02-01T00:44:43;3.00;;;2.90;;
26820;SDS011;37186;51.394;5.454;2023-02-01T00:47:43;3.10;;;3.00;;
26820;SDS011;37186;51.394;5.454;2023-02-01T00:50:44;3.40;;;3.30;;
26820;SDS011;37186;51.394;5.454;2023-02-01T00:53:45;3.30;;;3.20;;
26820;SDS011;37186;51.394;5.454;2023-02-01T00:56:45;3.20;;;3.10;;
26820;SDS011;37186;51.394;5.454;2023-02-01T00:59:46;3.27;;;3.17;;
26820;SDS011;37186;51.394;5.454;2023-02-01T01:02:46;3.30;;;3.20;;
26820;SDS011;37186;51.394;5.454;2023-02-01T01:05:47;3.10;;;3.00;;
26820;SDS011;37186;51.394;5.454;2023-02-01T01:08:50;3.20;;;3.10;;
26820;SDS011;37186;51.394;5.454;2023-02-01T01:11:52;3.20;;;3.10;;
26820;SDS011;37186;51.394;5.454;2023-02-01T01:14:53;3.07;;;2.97;;
26820;SDS011;37186;51.394;5.454;2023-02-01T01:17:54;3.00;;;2.90;;
26820;SDS011;37186;51.394;5.454;2023-02-01T01:20:54;3.10;;;3.00;;
26820;SDS011;37186;51.394;5.454;2023-02-01T01:23:55;3.23;;;3.13;;
26820;SDS011;37186;51.394;5.454;2023-02-01T01:26:55;3.30;;;3.20;;
26820;SDS011;37186;51.394;5.454;2023-02-01T01:29:56;3.10;;;3.00;;
26820;SDS011;37186;51.394;5.454;2023-02-01T01:32:56;3.20;;;3.10;;
26820;SDS011;37186;51.394;5.454;2023-02-01T01:35:57;3.10;;;3.00;;
26820;SDS011;37186;51.394;5.454;2023-02-01T01:38:57;3.10;;;3.00;;
26820;SDS011;37186;51.394;5.454;2023-02-01T01:41:58;3.20;;;3.10;;
26820;SDS011;37186;51.394;5.454;2023-02-01T01:45:00;3.20;;;3.10;;
26820;SDS011;37186;51.394;5.454;2023-02-01T01:48:05;3.10;;;3.00;;
26820;SDS011;37186;51.394;5.454;2023-02-01T01:51:10;3.20;;;3.10;;
26820;SDS011;37186;51.394;5.454;2023-02-01T01:54:16;3.10;;;3.00;;
26820;SDS011;37186;51.394;5.454;2023-02-01T01:57:24;3.30;;;3.20;;
26820;SDS011;37186;51.394;5.454;2023-02-01T02:00:51;3.37;;;3.27;;
26820;SDS011;37186;51.394;5.454;2023-02-01T02:03:53;3.00;;;2.90;;
26820;SDS011;37186;51.394;5.454;2023-02-01T02:06:56;3.13;;;3.03;;
26820;SDS011;37186;51.394;5.454;2023-02-01T02:10:03;3.10;;;3.00;;
26820;SDS011;37186;51.394;5.454;2023-02-01T02:13:05;3.03;;;2.93;;
26820;SDS011;37186;51.394;5.454;2023-02-01T02:16:20;3.07;;;2.97;;
26820;SDS011;37186;51.394;5.454;2023-02-01T02:32:53;3.20;;;3.10;;
26820;SDS011;37186;51.394;5.454;2023-02-01T02:36:06;3.20;;;3.10;;
26820;SDS011;37186;51.394;5.454;2023-02-01T02:54:07;3.23;;;3.13;;
26820;SDS011;37186;51.394;5.454;2023-02-01T02:57:36;3.20;;;3.10;;
26820;SDS011;37186;51.394;5.454;2023-02-01T03:00:57;3.07;;;2.97;;
26820;SDS011;37186;51.394;5.454;2023-02-01T03:04:17;3.10;;;3.00;;
26820;SDS011;37186;51.394;5.454;2023-02-01T03:10:53;3.20;;;3.10;;
26820;SDS011;37186;51.394;5.454;2023-02-01T03:14:04;3.20;;;3.10;;
26820;SDS011;37186;51.394;5.454;2023-02-01T03:17:17;3.10;;;3.00;;
26820;SDS011;37186;51.394;5.454;2023-02-01T03:20:24;3.10;;;3.00;;
26820;SDS011;37186;51.394;5.454;2023-02-01T03:23:28;3.17;;;3.07;;
26820;SDS011;37186;51.394;5.454;2023-02-01T03:26:31;3.20;;;3.10;;
26820;SDS011;37186;51.394;5.454;2023-02-01T03:29:40;3.30;;;3.20;;
26820;SDS011;37186;51.394;5.454;2023-02-01T03:32:51;3.00;;;2.90;;
26820;SDS011;37186;51.394;5.454;2023-02-01T03:39:14;3.20;;;3.10;;
26820;SDS011;37186;51.394;5.454;2023-02-01T03:42:24;3.20;;;3.10;;
26820;SDS011;37186;51.394;5.454;2023-02-01T03:45:35;3.00;;;2.90;;
26820;SDS011;37186;51.394;5.454;2023-02-01T03:48:41;3.00;;;2.90;;
26820;SDS011;37186;51.394;5.454;2023-02-01T03:51:42;3.20;;;3.10;;
26820;SDS011;37186;51.394;5.454;2023-02-01T03:54:43;3.30;;;3.20;;
26820;SDS011;37186;51.394;5.454;2023-02-01T03:57:46;3.30;;;3.20;;
26820;SDS011;37186;51.394;5.454;2023-02-01T04:00:56;3.00;;;2.90;;
26820;SDS011;37186;51.394;5.454;2023-02-01T04:03:57;2.90;;;2.80;;
26820;SDS011;37186;51.394;5.454;2023-02-01T04:06:58;3.00;;;2.90;;
26820;SDS011;37186;51.394;5.454;2023-02-01T04:09:59;3.20;;;3.10;;
26820;SDS011;37186;51.394;5.454;2023-02-01T04:12:59;3.20;;;3.10;;
26820;SDS011;37186;51.394;5.454;2023-02-01T04:16:00;3.00;;;2.90;;
26820;SDS011;37186;51.394;5.454;2023-02-01T04:19:00;3.50;;;3.40;;
26820;SDS011;37186;51.394;5.454;2023-02-01T04:22:01;3.27;;;3.17;;
26820;SDS011;37186;51.394;5.454;2023-02-01T04:25:02;3.20;;;3.10;;
26820;SDS011;37186;51.394;5.454;2023-02-01T04:28:02;3.17;;;3.07;;
26820;SDS011;37186;51.394;5.454;2023-02-01T04:31:04;3.10;;;3.00;;
26820;SDS011;37186;51.394;5.454;2023-02-01T04:34:05;3.10;;;3.00;;
26820;SDS011;37186;51.394;5.454;2023-02-01T04:37:05;3.30;;;3.20;;
26820;SDS011;37186;51.394;5.454;2023-02-01T04:40:07;3.00;;;2.90;;
26820;SDS011;37186;51.394;5.454;2023-02-01T04:43:08;3.30;;;3.20;;
26820;SDS011;37186;51.394;5.454;2023-02-01T04:46:09;3.10;;;3.00;;
26820;SDS011;37186;51.394;5.454;2023-02-01T04:49:09;3.20;;;3.10;;
26820;SDS011;37186;51.394;5.454;2023-02-01T04:52:10;3.00;;;2.90;;
26820;SDS011;37186;51.394;5.454;2023-02-01T04:55:11;3.10;;;3.00;;
26820;SDS011;37186;51.394;5.454;2023-02-01T04:58:13;3.20;;;3.10;;
26820;SDS011;37186;51.394;5.454;2023-02-01T05:01:13;3.10;;;3.00;;
26820;SDS011;37186;51.394;5.454;2023-02-01T05:04:14;3.30;;;3.20;;
26820;SDS011;37186;51.394;5.454;2023-02-01T05:07:14;3.30;;;3.20;;
26820;SDS011;37186;51.394;5.454;2023-02-01T05:10:15;3.20;;;3.10;;
26820;SDS011;37186;51.394;5.454;2023-02-01T05:13:16;3.30;;;3.20;;
26820;SDS011;37186;51.394;5.454;2023-02-01T05:16:35;3.00;;;2.90;;
26820;SDS011;37186;51.394;5.454;2023-02-01T05:19:35;3.10;;;3.00;;
26820;SDS011;37186;51.394;5.454;2023-02-01T05:22:36;3.00;;;2.90;;
26820;SDS011;37186;51.394;5.454;2023-02-01T05:25:36;3.10;;;3.00;;
26820;SDS011;37186;51.394;5.454;2023-02-01T05:28:37;3.17;;;3.07;;
26820;SDS011;37186;51.394;5.454;2023-02-01T05:31:38;3.00;;;2.90;;
26820;SDS011;37186;51.394;5.454;2023-02-01T05:34:39;3.03;;;2.93;;
26820;SDS011;37186;51.394;5.454;2023-02-01T05:37:39;3.20;;;3.10;;
26820;SDS011;37186;51.394;5.454;2023-02-01T05:40:40;3.10;;;3.00;;
26820;SDS011;37186;51.394;5.454;2023-02-01T05:43:40;3.20;;;3.10;;
26820;SDS011;37186;51.394;5.454;2023-02-01T05:46:41;3.10;;;3.00;;
26820;SDS011;37186;51.394;5.454;2023-02-01T05:49:42;2.93;;;2.83;;
26820;SDS011;37186;51.394;5.454;2023-02-01T05:52:42;3.20;;;3.10;;
26820;SDS011;37186;51.394;5.454;2023-02-01T05:55:43;3.03;;;2.93;;
26820;SDS011;37186;51.394;5.454;2023-02-01T05:58:43;3.20;;;3.10;;
26820;SDS011;37186;51.394;5.454;2023-02-01T06:01:44;3.10;;;3.00;;
26820;SDS011;37186;51.394;5.454;2023-02-01T06:04:44;3.30;;;3.20;;
26820;SDS011;37186;51.394;5.454;2023-02-01T06:07:45;3.40;;;3.30;;
26820;SDS011;37186;51.394;5.454;2023-02-01T06:10:45;3.10;;;3.00;;
26820;SDS011;37186;51.394;5.454;2023-02-01T06:13:46;3.20;;;3.10;;
26820;SDS011;37186;51.394;5.454;2023-02-01T06:16:47;3.20;;;3.10;;
26820;SDS011;37186;51.394;5.454;2023-02-01T06:19:47;3.13;;;3.03;;
26820;SDS011;37186;51.394;5.454;2023-02-01T06:22:48;3.20;;;3.10;;
26820;SDS011;37186;51.394;5.454;2023-02-01T06:25:49;3.10;;;3.00;;
26820;SDS011;37186;51.394;5.454;2023-02-01T06:28:59;3.00;;;2.90;;
26820;SDS011;37186;51.394;5.454;2023-02-01T06:31:59;3.10;;;3.00;;
26820;SDS011;37186;51.394;5.454;2023-02-01T06:35:00;3.07;;;2.97;;
26820;SDS011;37186;51.394;5.454;2023-02-01T06:38:01;3.10;;;3.00;;
26820;SDS011;37186;51.394;5.454;2023-02-01T06:41:01;3.20;;;3.10;;
26820;SDS011;37186;51.394;5.454;2023-02-01T06:44:03;3.03;;;2.93;;
26820;SDS011;37186;51.394;5.454;2023-02-01T06:47:04;3.30;;;3.20;;
26820;SDS011;37186;51.394;5.454;2023-02-01T06:50:04;3.17;;;3.07;;
26820;SDS011;37186;51.394;5.454;2023-02-01T06:53:06;2.97;;;2.87;;
26820;SDS011;37186;51.394;5.454;2023-02-01T06:56:08;3.20;;;3.10;;
26820;SDS011;37186;51.394;5.454;2023-02-01T06:59:09;3.30;;;3.20;;
26820;SDS011;37186;51.394;5.454;2023-02-01T07:02:10;3.30;;;3.20;;
26820;SDS011;37186;51.394;5.454;2023-02-01T07:05:11;3.10;;;3.00;;
26820;SDS011;37186;51.394;5.454;2023-02-01T07:08:11;3.20;;;3.10;;
26820;SDS011;37186;51.394;5.454;2023-02-01T07:11:13;3.40;;;3.30;;
26820;SDS011;37186;51.394;5.454;2023-02-01T07:14:14;3.17;;;3.07;;
26820;SDS011;37186;51.394;5.454;2023-02-01T07:17:15;3.27;;;3.17;;
26820;SDS011;37186;51.394;5.454;2023-02-01T07:20:15;3.13;;;3.03;;
26820;SDS011;37186;51.394;5.454;2023-02-01T07:23:16;3.10;;;3.00;;
26820;SDS011;37186;51.394;5.454;2023-02-01T07:26:17;3.20;;;3.10;;
26820;SDS011;37186;51.394;5.454;2023-02-01T07:29:18;3.30;;;3.20;;
26820;SDS011;37186;51.394;5.454;2023-02-01T07:32:18;3.20;;;3.10;;
26820;SDS011;37186;51.394;5.454;2023-02-01T07:35:19;3.10;;;3.00;;
26820;SDS011;37186;51.394;5.454;2023-02-01T07:38:20;3.20;;;3.10;;
26820;SDS011;37186;51.394;5.454;2023-02-01T07:41:21;3.20;;;3.10;;
26820;SDS011;37186;51.394;5.454;2023-02-01T07:44:22;3.30;;;3.20;;
26820;SDS011;37186;51.394;5.454;2023-02-01T07:47:23;3.10;;;3.00;;
26820;SDS011;37186;51.394;5.454;2023-02-01T07:50:23;3.30;;;3.20;;
26820;SDS011;37186;51.394;5.454;2023-02-01T07:53:24;3.20;;;3.10;;
26820;SDS011;37186;51.394;5.454;2023-02-01T07:56:24;3.17;;;3.07;;
26820;SDS011;37186;51.394;5.454;2023-02-01T07:59:25;3.50;;;3.40;;
26820;SDS011;37186;51.394;5.454;2023-02-01T08:02:25;3.10;;;3.00;;
26820;SDS011;37186;51.394;5.454;2023-02-01T08:05:26;3.30;;;3.20;;
26820;SDS011;37186;51.394;5.454;2023-02-01T08:08:27;3.10;;;3.00;;
26820;SDS011;37186;51.394;5.454;2023-02-01T08:11:27;3.30;;;3.20;;
26820;SDS011;37186;51.394;5.454;2023-02-01T08:14:28;3.00;;;2.90;;
26820;SDS011;37186;51.394;5.454;2023-02-01T08:17:29;3.10;;;3.00;;
26820;SDS011;37186;51.394;5.454;2023-02-01T08:20:30;3.10;;;3.00;;
26820;SDS011;37186;51.394;5.454;2023-02-01T08:23:31;3.10;;;3.00;;
26820;SDS011;37186;51.394;5.454;2023-02-01T08:26:33;3.30;;;3.20;;
26820;SDS011;37186;51.394;5.454;2023-02-01T08:29:34;3.20;;;3.10;;
26820;SDS011;37186;51.394;5.454;2023-02-01T08:32:34;3.30;;;3.20;;
26820;SDS011;37186;51.394;5.454;2023-02-01T08:35:35;3.10;;;3.00;;
26820;SDS011;37186;51.394;5.454;2023-02-01T08:38:37;3.40;;;3.30;;
26820;SDS011;37186;51.394;5.454;2023-02-01T08:41:39;3.20;;;3.10;;
26820;SDS011;37186;51.394;5.454;2023-02-01T08:44:42;3.30;;;3.20;;
26820;SDS011;37186;51.394;5.454;2023-02-01T08:47:42;3.20;;;3.10;;
26820;SDS011;37186;51.394;5.454;2023-02-01T08:50:43;3.30;;;3.20;;
26820;SDS011;37186;51.394;5.454;2023-02-01T08:53:43;3.20;;;3.10;;
26820;SDS011;37186;51.394;5.454;2023-02-01T08:56:45;3.20;;;3.10;;
26820;SDS011;37186;51.394;5.454;2023-02-01T08:59:45;3.30;;;3.20;;
26820;SDS011;37186;51.394;5.454;2023-02-01T09:02:46;3.50;;;3.40;;
26820;SDS011;37186;51.394;5.454;2023-02-01T09:05:46;3.20;;;3.10;;
26820;SDS011;37186;51.394;5.454;2023-02-01T09:08:47;3.27;;;3.17;;
26820;SDS011;37186;51.394;5.454;2023-02-01T09:11:48;3.00;;;2.90;;
26820;SDS011;37186;51.394;5.454;2023-02-01T09:14:50;3.30;;;3.20;;
26820;SDS011;37186;51.394;5.454;2023-02-01T09:17:50;3.10;;;3.00;;
26820;SDS011;37186;51.394;5.454;2023-02-01T09:20:51;3.00;;;2.90;;
26820;SDS011;37186;51.394;5.454;2023-02-01T09:23:51;3.10;;;3.00;;
26820;SDS011;37186;51.394;5.454;2023-02-01T09:26:52;3.30;;;3.20;;
26820;SDS011;37186;51.394;5.454;2023-02-01T09:29:53;3.00;;;2.90;;
26820;SDS011;37186;51.394;5.454;2023-02-01T09:32:53;3.40;;;3.30;;
26820;SDS011;37186;51.394;5.454;2023-02-01T09:35:57;3.37;;;3.27;;
26820;SDS011;37186;51.394;5.454;2023-02-01T09:38:59;3.20;;;3.10;;
26820;SDS011;37186;51.394;5.454;2023-02-01T09:45:46;3.10;;;3.00;;
26820;SDS011;37186;51.394;5.454;2023-02-01T09:48:56;3.13;;;3.03;;
26820;SDS011;37186;51.394;5.454;2023-02-01T09:52:01;3.20;;;3.10;;
26820;SDS011;37186;51.394;5.454;2023-02-01T09:55:10;3.10;;;3.00;;
26820;SDS011;37186;51.394;5.454;2023-02-01T09:58:17;3.00;;;2.90;;
26820;SDS011;37186;51.394;5.454;2023-02-01T10:01:25;2.93;;;2.83;;
26820;SDS011;37186;51.394;5.454;2023-02-01T10:04:26;3.20;;;3.10;;
26820;SDS011;37186;51.394;5.454;2023-02-01T10:10:41;3.10;;;3.00;;
26820;SDS011;37186;51.394;5.454;2023-02-01T10:13:54;3.20;;;3.10;;
26820;SDS011;37186;51.394;5.454;2023-02-01T10:27:56;3.00;;;2.90;;
26820;SDS011;37186;51.394;5.454;2023-02-01T10:31:00;3.13;;;3.03;;
26820;SDS011;37186;51.394;5.454;2023-02-01T10:34:18;3.00;;;2.90;;
26820;SDS011;37186;51.394;5.454;2023-02-01T10:37:34;3.00;;;2.90;;
26820;SDS011;37186;51.394;5.454;2023-02-01T10:40:35;3.10;;;3.00;;
26820;SDS011;37186;51.394;5.454;2023-02-01T10:43:37;3.20;;;3.10;;
26820;SDS011;37186;51.394;5.454;2023-02-01T10:46:39;3.00;;;2.90;;
26820;SDS011;37186;51.394;5.454;2023-02-01T10:49:44;3.10;;;3.00;;
26820;SDS011;37186;51.394;5.454;2023-02-01T10:52:55;3.10;;;3.00;;
26820;SDS011;37186;51.394;5.454;2023-02-01T10:56:05;3.30;;;3.20;;
26820;SDS011;37186;51.394;5.454;2023-02-01T10:59:13;3.20;;;3.10;;
26820;SDS011;37186;51.394;5.454;2023-02-01T11:02:31;3.10;;;3.00;;
26820;SDS011;37186;51.394;5.454;2023-02-01T11:05:42;3.20;;;3.10;;
26820;SDS011;37186;51.394;5.454;2023-02-01T11:08:45;3.20;;;3.10;;
26820;SDS011;37186;51.394;5.454;2023-02-01T11:14:49;3.07;;;2.97;;
26820;SDS011;37186;51.394;5.454;2023-02-01T11:17:51;3.10;;;3.00;;
26820;SDS011;37186;51.394;5.454;2023-02-01T11:20:54;3.33;;;3.23;;
26820;SDS011;37186;51.394;5.454;2023-02-01T11:23:55;3.27;;;3.17;;
26820;SDS011;37186;51.394;5.454;2023-02-01T11:27:03;3.30;;;3.20;;
26820;SDS011;37186;51.394;5.454;2023-02-01T11:30:05;3.30;;;3.20;;
26820;SDS011;37186;51.394;5.454;2023-02-01T11:33:06;3.20;;;3.10;;
26820;SDS011;37186;51.394;5.454;2023-02-01T11:36:14;3.40;;;3.30;;
26820;SDS011;37186;51.394;5.454;2023-02-01T11:42:25;2.90;;;2.80;;
26820;SDS011;37186;51.394;5.454;2023-02-01T11:45:28;3.10;;;3.00;;
26820;SDS011;37186;51.394;5.454;2023-02-01T11:48:33;3.07;;;2.97;;
26820;SDS011;37186;51.394;5.454;2023-02-01T11:51:37;3.00;;;2.90;;
26820;SDS011;37186;51.394;5.454;2023-02-01T11:55:13;2.97;;;2.87;;
26820;SDS011;37186;51.394;5.454;2023-02-01T11:58:46;3.10;;;3.00;;
26820;SDS011;37186;51.394;5.454;2023-02-01T12:05:03;3.00;;;2.90;;
26820;SDS011;37186;51.394;5.454;2023-02-01T12:15:30;3.00;;;2.90;;
26820;SDS011;37186;51.394;5.454;2023-02-01T12:22:04;3.10;;;3.00;;
26820;SDS011;37186;51.394;5.454;2023-02-01T12:35:44;3.00;;;2.90;;
26820;SDS011;37186;51.394;5.454;2023-02-01T12:38:57;3.00;;;2.90;;
26820;SDS011;37186;51.394;5.454;2023-02-01T12:42:47;3.10;;;3.00;;
26820;SDS011;37186;51.394;5.454;2023-02-01T12:45:42;3.00;;;2.90;;
26820;SDS011;37186;51.394;5.454;2023-02-01T12:49:05;3.20;;;3.10;;
26820;SDS011;37186;51.394;5.454;2023-02-01T12:52:10;3.00;;;2.90;;
26820;SDS011;37186;51.394;5.454;2023-02-01T12:55:36;2.90;;;2.80;;
26820;SDS011;37186;51.394;5.454;2023-02-01T12:58:46;3.00;;;2.90;;
26820;SDS011;37186;51.394;5.454;2023-02-01T13:01:59;3.10;;;3.00;;
26820;SDS011;37186;51.394;5.454;2023-02-01T13:05:14;3.40;;;3.30;;
26820;SDS011;37186;51.394;5.454;2023-02-01T13:11:46;3.17;;;3.07;;
26820;SDS011;37186;51.394;5.454;2023-02-01T13:15:03;3.17;;;3.07;;
26820;SDS011;37186;51.394;5.454;2023-02-01T13:18:21;3.20;;;3.10;;
26820;SDS011;37186;51.394;5.454;2023-02-01T13:21:27;3.00;;;2.90;;
26820;SDS011;37186;51.394;5.454;2023-02-01T13:27:45;3.37;;;3.27;;
26820;SDS011;37186;51.394;5.454;2023-02-01T13:30:57;3.40;;;3.30;;
26820;SDS011;37186;51.394;5.454;2023-02-01T13:44:13;3.40;;;3.30;;
26820;SDS011;37186;51.394;5.454;2023-02-01T13:50:35;3.43;;;3.33;;
26820;SDS011;37186;51.394;5.454;2023-02-01T13:53:47;3.50;;;3.40;;
26820;SDS011;37186;51.394;5.454;2023-02-01T13:56:48;3.60;;;3.50;;
26820;SDS011;37186;51.394;5.454;2023-02-01T13:59:50;3.67;;;3.57;;
26820;SDS011;37186;51.394;5.454;2023-02-01T14:06:02;3.40;;;3.30;;
26820;SDS011;37186;51.394;5.454;2023-02-01T14:09:15;3.60;;;3.50;;
26820;SDS011;37186;51.394;5.454;2023-02-01T14:19:06;3.80;;;3.70;;
26820;SDS011;37186;51.394;5.454;2023-02-01T14:25:25;3.43;;;3.33;;
26820;SDS011;37186;51.394;5.454;2023-02-01T14:28:34;3.47;;;3.37;;
26820;SDS011;37186;51.394;5.454;2023-02-01T14:31:43;3.30;;;3.20;;
26820;SDS011;37186;51.394;5.454;2023-02-01T14:37:53;3.40;;;3.30;;
26820;SDS011;37186;51.394;5.454;2023-02-01T14:44:32;3.60;;;3.50;;
26820;SDS011;37186;51.394;5.454;2023-02-01T14:47:33;3.80;;;3.70;;
26820;SDS011;37186;51.394;5.454;2023-02-01T14:50:35;3.50;;;3.40;;
26820;SDS011;37186;51.394;5.454;2023-02-01T14:53:42;3.47;;;3.37;;
26820;SDS011;37186;51.394;5.454;2023-02-01T14:56:44;3.57;;;3.47;;
26820;SDS011;37186;51.394;5.454;2023-02-01T14:59:45;3.50;;;3.40;;
26820;SDS011;37186;51.394;5.454;2023-02-01T15:02:47;3.60;;;3.50;;
26820;SDS011;37186;51.394;5.454;2023-02-01T15:05:58;3.37;;;3.27;;
26820;SDS011;37186;51.394;5.454;2023-02-01T15:09:03;3.30;;;3.20;;
26820;SDS011;37186;51.394;5.454;2023-02-01T15:15:13;3.27;;;3.17;;
26820;SDS011;37186;51.394;5.454;2023-02-01T15:18:16;3.17;;;3.07;;
26820;SDS011;37186;51.394;5.454;2023-02-01T15:21:22;3.23;;;3.13;;
26820;SDS011;37186;51.394;5.454;2023-02-01T15:27:25;3.33;;;3.23;;
26820;SDS011;37186;51.394;5.454;2023-02-01T15:30:29;3.17;;;3.07;;
26820;SDS011;37186;51.394;5.454;2023-02-01T15:33:31;3.30;;;3.20;;
26820;SDS011;37186;51.394;5.454;2023-02-01T15:36:33;3.30;;;3.20;;
26820;SDS011;37186;51.394;5.454;2023-02-01T15:39:35;3.20;;;3.10;;
26820;SDS011;37186;51.394;5.454;2023-02-01T15:42:47;3.33;;;3.23;;
26820;SDS011;37186;51.394;5.454;2023-02-01T15:45:55;3.20;;;3.10;;
26820;SDS011;37186;51.394;5.454;2023-02-01T15:49:00;3.50;;;3.40;;
26820;SDS011;37186;51.394;5.454;2023-02-01T15:52:00;3.33;;;3.23;;
26820;SDS011;37186;51.394;5.454;2023-02-01T15:55:06;3.20;;;3.10;;
26820;SDS011;37186;51.394;5.454;2023-02-01T15:58:23;3.20;;;3.10;;
26820;SDS011;37186;51.394;5.454;2023-02-01T16:01:25;3.37;;;3.27;;
26820;SDS011;37186;51.394;5.454;2023-02-01T16:04:28;3.10;;;3.00;;
26820;SDS011;37186;51.394;5.454;2023-02-01T16:07:30;3.20;;;3.10;;
26820;SDS011;37186;51.394;5.454;2023-02-01T16:10:37;3.10;;;3.00;;
26820;SDS011;37186;51.394;5.454;2023-02-01T16:13:43;3.13;;;3.03;;
26820;SDS011;37186;51.394;5.454;2023-02-01T16:16:43;3.23;;;3.13;;
26820;SDS011;37186;51.394;5.454;2023-02-01T16:19:44;3.33;;;3.23;;
26820;SDS011;37186;51.394;5.454;2023-02-01T16:22:44;3.20;;;3.10;;
26820;SDS011;37186;51.394;5.454;2023-02-01T16:25:45;3.40;;;3.30;;
26820;SDS011;37186;51.394;5.454;2023-02-01T16:28:46;3.30;;;3.20;;
26820;SDS011;37186;51.394;5.454;2023-02-01T16:31:47;3.20;;;3.10;;
26820;SDS011;37186;51.394;5.454;2023-02-01T16:34:49;3.13;;;3.03;;
26820;SDS011;37186;51.394;5.454;2023-02-01T16:37:49;3.47;;;3.37;;
26820;SDS011;37186;51.394;5.454;2023-02-01T16:40:50;3.30;;;3.20;;
26820;SDS011;37186;51.394;5.454;2023-02-01T16:43:52;3.37;;;3.27;;
26820;SDS011;37186;51.394;5.454;2023-02-01T16:46:54;3.43;;;3.33;;
26820;SDS011;37186;51.394;5.454;2023-02-01T16:49:54;3.37;;;3.27;;
26820;SDS011;37186;51.394;5.454;2023-02-01T16:52:55;3.33;;;3.23;;
26820;SDS011;37186;51.394;5.454;2023-02-01T16:55:55;3.23;;;3.13;;
26820;SDS011;37186;51.394;5.454;2023-02-01T16:58:59;3.30;;;3.20;;
26820;SDS011;37186;51.394;5.454;2023-02-01T17:02:00;3.20;;;3.10;;
26820;SDS011;37186;51.394;5.454;2023-02-01T17:05:01;3.20;;;3.10;;
26820;SDS011;37186;51.394;5.454;2023-02-01T17:08:02;3.33;;;3.23;;
26820;SDS011;37186;51.394;5.454;2023-02-01T17:11:06;3.30;;;3.20;;
26820;SDS011;37186;51.394;5.454;2023-02-01T17:14:17;3.40;;;3.30;;
26820;SDS011;37186;51.394;5.454;2023-02-01T17:17:19;3.20;;;3.10;;
26820;SDS011;37186;51.394;5.454;2023-02-01T17:20:22;3.20;;;3.10;;
26820;SDS011;37186;51.394;5.454;2023-02-01T17:23:24;3.23;;;3.13;;
26820;SDS011;37186;51.394;5.454;2023-02-01T17:26:26;3.30;;;3.20;;
26820;SDS011;37186;51.394;5.454;2023-02-01T17:29:26;3.37;;;3.27;;
26820;SDS011;37186;51.394;5.454;2023-02-01T17:32:27;3.40;;;3.30;;
26820;SDS011;37186;51.394;5.454;2023-02-01T17:35:28;3.27;;;3.17;;
26820;SDS011;37186;51.394;5.454;2023-02-01T17:38:30;3.37;;;3.27;;
26820;SDS011;37186;51.394;5.454;2023-02-01T17:41:30;3.17;;;3.07;;
26820;SDS011;37186;51.394;5.454;2023-02-01T17:44:31;3.40;;;3.30;;
26820;SDS011;37186;51.394;5.454;2023-02-01T17:47:31;3.50;;;3.40;;
26820;SDS011;37186;51.394;5.454;2023-02-01T17:50:34;3.67;;;3.57;;
26820;SDS011;37186;51.394;5.454;2023-02-01T17:53:36;3.60;;;3.50;;
26820;SDS011;37186;51.394;5.454;2023-02-01T17:56:37;3.57;;;3.47;;
26820;SDS011;37186;51.394;5.454;2023-02-01T17:59:37;3.40;;;3.30;;
26820;SDS011;37186;51.394;5.454;2023-02-01T18:02:38;3.50;;;3.40;;
26820;SDS011;37186;51.394;5.454;2023-02-01T18:05:39;3.13;;;3.03;;
26820;SDS011;37186;51.394;5.454;2023-02-01T18:08:42;3.53;;;3.43;;
26820;SDS011;37186;51.394;5.454;2023-02-01T18:11:43;3.43;;;3.33;;
26820;SDS011;37186;51.394;5.454;2023-02-01T18:14:43;3.30;;;3.20;;
26820;SDS011;37186;51.394;5.454;2023-02-01T18:17:44;3.50;;;3.40;;
26820;SDS011;37186;51.394;5.454;2023-02-01T18:20:45;3.43;;;3.33;;
26820;SDS011;37186;51.394;5.454;2023-02-01T18:23:47;3.67;;;3.57;;
26820;SDS011;37186;51.394;5.454;2023-02-01T18:26:48;3.37;;;3.27;;
26820;SDS011;37186;51.394;5.454;2023-02-01T18:29:48;3.37;;;3.27;;
26820;SDS011;37186;51.394;5.454;2023-02-01T18:32:49;3.43;;;3.33;;
26820;SDS011;37186;51.394;5.454;2023-02-01T18:35:49;3.40;;;3.30;;
26820;SDS011;37186;51.394;5.454;2023-02-01T18:38:50;3.50;;;3.40;;
26820;SDS011;37186;51.394;5.454;2023-02-01T18:41:53;3.60;;;3.50;;
26820;SDS011;37186;51.394;5.454;2023-02-01T18:44:53;3.73;;;3.63;;
26820;SDS011;37186;51.394;5.454;2023-02-01T18:47:54;3.53;;;3.43;;
26820;SDS011;37186;51.394;5.454;2023-02-01T18:50:55;3.60;;;3.50;;
26820;SDS011;37186;51.394;5.454;2023-02-01T18:53:56;3.50;;;3.40;;
26820;SDS011;37186;51.394;5.454;2023-02-01T18:56:57;3.70;;;3.60;;
26820;SDS011;37186;51.394;5.454;2023-02-01T18:59:57;3.80;;;3.70;;
26820;SDS011;37186;51.394;5.454;2023-02-01T19:02:58;3.70;;;3.60;;
26820;SDS011;37186;51.394;5.454;2023-02-01T19:05:59;3.40;;;3.30;;
26820;SDS011;37186;51.394;5.454;2023-02-01T19:08:59;3.60;;;3.50;;
26820;SDS011;37186;51.394;5.454;2023-02-01T19:12:00;3.40;;;3.30;;
26820;SDS011;37186;51.394;5.454;2023-02-01T19:15:02;3.40;;;3.30;;
26820;SDS011;37186;51.394;5.454;2023-02-01T19:18:03;3.50;;;3.40;;
26820;SDS011;37186;51.394;5.454;2023-02-01T19:21:04;3.60;;;3.50;;
26820;SDS011;37186;51.394;5.454;2023-02-01T19:24:09;3.50;;;3.40;;
26820;SDS011;37186;51.394;5.454;2023-02-01T19:27:10;3.50;;;3.40;;
26820;SDS011;37186;51.394;5.454;2023-02-01T19:30:11;3.40;;;3.30;;
26820;SDS011;37186;51.394;5.454;2023-02-01T19:33:13;3.53;;;3.43;;
26820;SDS011;37186;51.394;5.454;2023-02-01T19:36:14;3.60;;;3.50;;
26820;SDS011;37186;51.394;5.454;2023-02-01T19:39:15;3.30;;;3.20;;
26820;SDS011;37186;51.394;5.454;2023-02-01T19:42:15;3.60;;;3.50;;
26820;SDS011;37186;51.394;5.454;2023-02-01T19:45:16;3.60;;;3.50;;
26820;SDS011;37186;51.394;5.454;2023-02-01T19:48:17;3.40;;;3.30;;
26820;SDS011;37186;51.394;5.454;2023-02-01T19:51:17;3.40;;;3.30;;
26820;SDS011;37186;51.394;5.454;2023-02-01T19:54:18;3.50;;;3.40;;
26820;SDS011;37186;51.394;5.454;2023-02-01T19:57:19;3.33;;;3.23;;
26820;SDS011;37186;51.394;5.454;2023-02-01T20:00:20;3.20;;;3.10;;
26820;SDS011;37186;51.394;5.454;2023-02-01T20:03:21;3.40;;;3.30;;
26820;SDS011;37186;51.394;5.454;2023-02-01T20:06:23;3.60;;;3.50;;
26820;SDS011;37186;51.394;5.454;2023-02-01T20:09:25;3.70;;;3.60;;
26820;SDS011;37186;51.394;5.454;2023-02-01T20:12:30;3.60;;;3.50;;
26820;SDS011;37186;51.394;5.454;2023-02-01T20:15:30;3.57;;;3.47;;
26820;SDS011;37186;51.394;5.454;2023-02-01T20:18:31;3.40;;;3.30;;
26820;SDS011;37186;51.394;5.454;2023-02-01T20:21:32;3.80;;;3.70;;
26820;SDS011;37186;51.394;5.454;2023-02-01T20:24:33;3.70;;;3.60;;
26820;SDS011;37186;51.394;5.454;2023-02-01T20:27:33;3.70;;;3.60;;
26820;SDS011;37186;51.394;5.454;2023-02-01T20:30:34;3.83;;;3.73;;
26820;SDS011;37186;51.394;5.454;2023-02-01T20:33:34;3.60;;;3.50;;
26820;SDS011;37186;51.394;5.454;2023-02-01T20:36:35;3.40;;;3.30;;